createdAt,value
2018-02-06T00:02:04.171Z,1018.5
2018-02-06T00:12:18.138Z,1018.4
2018-02-06T00:22:32.142Z,1018.3
2018-02-06T00:32:43.698Z,1018.1
2018-02-06T00:43:29.728Z,1017.9
2018-02-06T00:53:43.514Z,1017.7
2018-02-06T01:04:29.154Z,1017.6
2018-02-06T01:15:14.713Z,1017.4
2018-02-06T01:25:26.425Z,1017.3
2018-02-06T01:36:12.029Z,1017.1
2018-02-06T01:46:57.756Z,1016.9
2018-02-06T01:57:43.450Z,1016.8
2018-02-06T02:08:30.482Z,1016.8
2018-02-06T02:18:45.276Z,1016.7
2018-02-06T02:28:59.921Z,1016.5
2018-02-06T02:39:54.159Z,1016.4
2018-02-06T04:43:19.003Z,1015.4
2018-02-06T04:53:33.600Z,1015.2
2018-02-06T05:04:36.817Z,1015.1
2018-02-06T05:15:23.294Z,1015.0
2018-02-06T05:25:49.487Z,1014.8
2018-02-06T05:37:44.096Z,1014.8
2018-02-06T05:48:00.037Z,1014.7
2018-02-06T05:58:40.827Z,1014.5
2018-02-06T06:09:13.553Z,1014.5
2018-02-06T06:19:28.981Z,1014.4
2018-02-06T06:32:18.404Z,1014.2
2018-02-06T06:43:06.786Z,1014.1
2018-02-06T06:53:48.443Z,1014.0
2018-02-06T07:05:30.942Z,1014.0
2018-02-06T07:17:33.652Z,1013.9
2018-02-06T07:27:49.320Z,1013.8
2018-02-06T07:38:30.981Z,1013.9
2018-02-06T07:49:22.684Z,1013.8
2018-02-06T07:59:37.768Z,1013.9
2018-02-06T08:09:52.250Z,1013.8
2018-02-06T08:20:04.378Z,1013.6
2018-02-06T08:30:29.311Z,1013.5
2018-02-06T08:40:55.693Z,1013.6
2018-02-06T08:51:22.386Z,1013.2
2018-02-06T09:02:19.968Z,1013.0
2018-02-06T09:16:09.083Z,1013.0
2018-02-06T09:26:41.531Z,1012.9
2018-02-06T10:03:51.732Z,1012.7
2018-02-06T10:14:49.943Z,1012.6
2018-02-06T10:37:22.024Z,1012.3
2018-02-06T10:47:36.474Z,1012.4
2018-02-06T10:58:55.931Z,1012.3
2018-02-06T11:09:12.134Z,1012.3
2018-02-06T11:20:33.718Z,1012.2
2018-02-06T11:30:46.130Z,1012.1
2018-02-06T11:40:58.669Z,1012.0
2018-02-06T11:51:13.079Z,1011.8
2018-02-06T12:02:09.824Z,1011.5
2018-02-06T12:12:58.606Z,1011.2
2018-02-06T12:23:13.808Z,1011.1
2018-02-06T12:33:28.891Z,1011.2
2018-02-06T12:44:23.887Z,1011.2
2018-02-06T12:55:09.268Z,1011.1
2018-02-06T13:05:21.857Z,1010.9
2018-02-06T13:15:36.885Z,1010.7
2018-02-06T13:36:49.659Z,1010.5
2018-02-06T13:47:03.402Z,1010.2
2018-02-06T13:57:20.413Z,1010.0
2018-02-06T14:08:05.674Z,1009.9
2018-02-06T14:29:46.077Z,1010.0
2018-02-06T14:41:11.355Z,1009.7
2018-02-06T14:53:34.143Z,1009.7
2018-02-06T15:03:48.014Z,1009.8
2018-02-06T15:13:59.828Z,1009.9
2018-02-06T15:24:13.846Z,1009.8
2018-02-06T15:34:26.988Z,1009.8
2018-02-06T15:45:15.780Z,1009.9
2018-02-06T15:55:29.317Z,1009.7
2018-02-06T16:05:43.623Z,1009.9
2018-02-06T16:15:57.535Z,1009.8
2018-02-06T16:26:41.243Z,1009.9
2018-02-06T16:36:55.674Z,1009.7
2018-02-06T17:00:42.290Z,1009.8
2018-02-06T17:12:46.024Z,1009.9
2018-02-06T17:24:42.595Z,1009.9
2018-02-06T17:34:56.890Z,1010.0
2018-02-06T17:45:10.647Z,1010.1
2018-02-06T17:55:54.483Z,1010.1
2018-02-06T18:07:41.723Z,1010.1
2018-02-06T18:30:39.936Z,1010.2
2018-02-06T19:13:15.874Z,1010.3
2018-02-06T19:27:13.383Z,1010.2
2018-02-06T19:41:24.802Z,1010.2
2018-02-06T20:52:20.658Z,1010.8
2018-02-06T21:53:56.547Z,1010.9
2018-02-06T22:34:14.318Z,1010.9
2018-02-06T22:44:30.202Z,1010.8
2018-02-06T23:13:22.858Z,1011.0
2018-02-06T23:23:33.968Z,1010.9
2018-02-06T23:33:47.092Z,1011.0
2018-02-06T23:44:00.817Z,1011.1
2018-02-06T23:54:12.868Z,1011.1
